Time;durP1;ratioP1;P1;durP2;ratioP2;P2;SDS_P1;SDS_P2;PMS_P1;PMS_P2;Temp;Humidity;BMP_temperature;BMP_pressure;BME280_temperature;BME280_humidity;BME280_pressure;Samples;Min_cycle;Max_cycle;Signal;HPM_P1;HPM_P2
2023/05/13 00:01:18;;;;;;;1.05;0.90;;;;;;;15.34;63.13;101303.50;5211403;28;20086;-87
2023/05/13 00:04:09;;;;;;;0.90;0.90;;;;;;;15.27;63.55;101308.16;5214610;28;20029;-88
2023/05/13 00:06:59;;;;;;;0.70;0.70;;;;;;;15.32;62.40;101305.34;5203281;28;20071;-87
2023/05/13 00:09:50;;;;;;;1.42;1.33;;;;;;;15.31;62.83;101308.91;5205962;28;20028;-87
2023/05/13 00:12:41;;;;;;;0.70;0.70;;;;;;;15.22;62.56;101304.81;5219066;28;20071;-87
2023/05/13 00:15:32;;;;;;;0.73;0.68;;;;;;;15.23;62.99;101308.34;5219666;28;20090;-88
2023/05/13 00:18:23;;;;;;;0.65;0.65;;;;;;;15.18;62.55;101304.97;5220633;28;20029;-88
2023/05/13 00:21:13;;;;;;;1.42;1.33;;;;;;;15.15;62.63;101310.41;5223060;28;20047;-87
2023/05/13 00:24:05;;;;;;;1.10;1.10;;;;;;;15.08;63.70;101304.47;5207208;28;20090;-87
2023/05/13 00:26:55;;;;;;;1.20;1.08;;;;;;;15.01;64.00;101316.19;5210862;28;20042;-89
2023/05/13 00:29:48;;;;;;;1.75;1.27;;;;;;;14.94;64.28;101315.53;5216068;28;20029;-86
2023/05/13 00:32:39;;;;;;;0.63;0.63;;;;;;;15.03;63.39;101309.94;5197233;28;20033;-88
2023/05/13 00:35:30;;;;;;;0.95;0.80;;;;;;;14.98;63.21;101311.88;5219748;28;20362;-87
2023/05/13 00:38:21;;;;;;;1.35;1.25;;;;;;;14.94;63.57;101304.97;5212402;28;20052;-88
2023/05/13 00:41:11;;;;;;;1.40;1.30;;;;;;;14.89;63.44;101313.06;5205712;28;20021;-89
2023/05/13 00:44:02;;;;;;;2.28;1.95;;;;;;;14.88;63.06;101310.47;5212809;28;20036;-87
2023/05/13 00:46:53;;;;;;;1.25;1.00;;;;;;;14.88;62.79;101306.03;5214828;28;20109;-87
2023/05/13 00:49:44;;;;;;;1.35;1.25;;;;;;;14.85;63.41;101308.81;5206072;28;20033;-87
2023/05/13 00:52:39;;;;;;;15.55;1.85;;;;;;;14.85;63.21;101300.88;5210901;28;20033;-87
2023/05/13 00:55:30;;;;;;;4.53;1.23;;;;;;;14.79;63.10;101312.53;5222125;28;20666;-86
2023/05/13 00:58:21;;;;;;;1.00;1.00;;;;;;;14.78;63.76;101316.09;5222297;28;20088;-86
2023/05/13 01:01:33;;;;;;;1.25;1.15;;;;;;;14.77;63.06;101317.00;5223914;28;20092;-87
2023/05/13 01:04:56;;;;;;;0.80;0.80;;;;;;;14.70;63.47;101317.28;5249098;28;20040;-88
2023/05/13 01:08:11;;;;;;;0.60;0.60;;;;;;;14.69;63.14;101312.91;5239979;28;20117;-88
2023/05/13 01:11:08;;;;;;;1.45;0.95;;;;;;;14.66;63.35;101311.25;5234805;28;20041;-88
2023/05/13 01:14:08;;;;;;;1.55;1.38;;;;;;;14.66;63.29;101316.53;5256041;28;20227;-88
2023/05/13 01:17:10;;;;;;;5.60;1.33;;;;;;;14.61;63.49;101318.41;5222765;28;20044;-88
2023/05/13 01:20:03;;;;;;;0.88;0.88;;;;;;;14.55;63.67;101319.47;5212078;28;20841;-89
2023/05/13 01:22:55;;;;;;;1.77;1.67;;;;;;;14.56;63.24;101315.09;5192701;28;20121;-87
2023/05/13 01:25:47;;;;;;;1.20;1.15;;;;;;;14.53;63.70;101310.78;5207897;28;20029;-87
2023/05/13 01:28:38;;;;;;;0.75;0.75;;;;;;;14.50;63.80;101312.66;5226722;28;20114;-87
2023/05/13 01:31:29;;;;;;;1.02;1.02;;;;;;;14.50;63.49;101310.03;5220927;28;20377;-87
2023/05/13 01:34:21;;;;;;;1.00;1.00;;;;;;;14.44;63.82;101306.66;5213042;28;20056;-88
2023/05/13 01:37:12;;;;;;;3.63;2.15;;;;;;;14.51;63.69;101317.00;5223888;28;20033;-87
2023/05/13 01:40:07;;;;;;;0.90;0.90;;;;;;;14.40;63.87;101310.31;5229872;28;20037;-86
2023/05/13 01:42:58;;;;;;;1.63;1.20;;;;;;;14.40;63.67;101310.31;5210458;28;20093;-87
2023/05/13 01:45:49;;;;;;;2.63;2.42;;;;;;;14.38;63.61;101322.72;5212038;28;20037;-88
2023/05/13 01:48:39;;;;;;;1.85;1.20;;;;;;;14.36;63.78;101324.53;5219457;28;20029;-87
2023/05/13 01:51:30;;;;;;;1.77;1.67;;;;;;;14.35;64.20;101325.44;5225967;28;20044;-88
2023/05/13 01:54:21;;;;;;;1.52;1.42;;;;;;;14.38;64.27;101322.72;5221791;28;20043;-87
2023/05/13 01:57:12;;;;;;;2.47;2.05;;;;;;;14.33;63.92;101319.38;5210405;28;20043;-86
2023/05/13 02:00:04;;;;;;;1.08;0.98;;;;;;;14.28;64.12;101310.72;5222836;28;20435;-86
2023/05/13 02:02:55;;;;;;;2.03;1.30;;;;;;;14.28;63.86;101321.28;5203737;28;20547;-87
2023/05/13 02:05:47;;;;;;;1.40;1.30;;;;;;;14.30;64.16;101319.47;5217601;28;20089;-86
2023/05/13 02:08:38;;;;;;;2.40;1.45;;;;;;;14.26;64.24;101318.69;5217890;28;20057;-88
2023/05/13 02:11:28;;;;;;;1.77;1.67;;;;;;;14.20;64.19;101324.19;5207332;28;20455;-88
2023/05/13 02:14:19;;;;;;;0.65;0.65;;;;;;;14.21;64.46;101323.28;5191292;28;20037;-88
2023/05/13 02:17:10;;;;;;;3.53;1.23;;;;;;;14.14;64.09;101314.69;5202082;28;20025;-88
2023/05/13 02:20:01;;;;;;;1.42;1.33;;;;;;;14.09;64.06;101321.88;5224316;28;20025;-88
2023/05/13 02:22:51;;;;;;;1.08;0.63;;;;;;;14.12;63.96;101319.16;5214121;28;20031;-87
2023/05/13 02:25:43;;;;;;;2.47;1.80;;;;;;;14.07;64.33;101317.56;5234481;28;20083;-87
2023/05/13 02:28:34;;;;;;;1.08;0.98;;;;;;;14.03;64.50;101321.22;5218630;28;20114;-87
2023/05/13 02:31:25;;;;;;;1.80;1.70;;;;;;;14.03;63.79;101327.34;5217814;28;20037;-88
2023/05/13 02:34:16;;;;;;;1.35;1.25;;;;;;;14.00;64.41;101316.91;5202461;28;20028;-88
2023/05/13 02:37:07;;;;;;;1.10;1.08;;;;;;;14.01;64.26;101324.78;5237126;28;20515;-89
2023/05/13 02:39:58;;;;;;;0.80;0.80;;;;;;;13.95;64.77;101313.53;5209215;28;20029;-87
2023/05/13 02:42:49;;;;;;;1.45;1.35;;;;;;;13.93;64.47;101315.34;5232332;28;20021;-88
2023/05/13 02:45:40;;;;;;;3.42;0.85;;;;;;;13.94;64.44;101315.34;5243546;28;20032;-87
2023/05/13 02:48:31;;;;;;;2.92;1.52;;;;;;;13.93;64.60;101310.09;5211387;28;20037;-87
2023/05/13 02:51:22;;;;;;;1.05;1.05;;;;;;;13.93;64.74;101310.97;5220099;28;20520;-87
2023/05/13 02:54:12;;;;;;;1.55;1.45;;;;;;;13.89;64.65;101311.09;5225317;28;20067;-88
2023/05/13 02:57:04;;;;;;;1.33;1.27;;;;;;;13.90;64.53;101310.19;5213290;28;20120;-87
2023/05/13 02:59:54;;;;;;;1.00;1.00;;;;;;;13.91;64.79;101311.94;5222912;28;20082;-87
2023/05/13 03:02:45;;;;;;;1.38;1.27;;;;;;;13.85;64.33;101311.19;5216013;28;20083;-87
2023/05/13 03:05:36;;;;;;;1.25;1.23;;;;;;;13.85;65.23;101316.47;5207214;28;20060;-87
2023/05/13 03:08:26;;;;;;;1.83;1.63;;;;;;;13.85;64.71;101312.97;5212554;28;20061;-87
2023/05/13 03:11:17;;;;;;;1.58;1.48;;;;;;;13.88;65.22;101306.75;5220609;28;20108;-87
2023/05/13 03:14:08;;;;;;;0.73;0.70;;;;;;;13.89;65.17;101308.47;5198303;28;20029;-88
2023/05/13 03:16:59;;;;;;;0.75;0.75;;;;;;;13.83;64.71;101313.03;5237563;28;20108;-87
2023/05/13 03:19:50;;;;;;;1.92;1.83;;;;;;;13.80;65.65;101315.75;5219062;28;20040;-87
2023/05/13 03:22:41;;;;;;;0.90;0.90;;;;;;;13.78;65.33;101312.31;5224579;28;20040;-87
2023/05/13 03:25:32;;;;;;;2.03;1.77;;;;;;;13.78;65.66;101314.94;5209355;28;20100;-88
2023/05/13 03:28:22;;;;;;;2.25;2.05;;;;;;;13.78;65.46;101312.31;5219774;28;20043;-87
2023/05/13 03:31:13;;;;;;;3.10;2.22;;;;;;;13.76;65.60;101313.25;5222568;28;20041;-88
2023/05/13 03:34:04;;;;;;;0.90;0.90;;;;;;;13.78;65.44;101314.94;5219774;28;20408;-88
2023/05/13 03:36:55;;;;;;;2.25;1.17;;;;;;;13.74;65.30;101313.31;5227908;28;20025;-87
2023/05/13 03:39:45;;;;;;;2.85;1.98;;;;;;;13.76;65.32;101308.84;5214997;28;20043;-88
2023/05/13 03:42:36;;;;;;;0.98;0.93;;;;;;;13.74;65.47;101315.97;5196494;28;20219;-88
2023/05/13 03:45:27;;;;;;;1.60;1.50;;;;;;;13.72;65.53;101309.84;5224664;28;20035;-87
2023/05/13 03:48:18;;;;;;;0.60;0.60;;;;;;;13.74;66.02;101310.69;5209695;28;20140;-87
2023/05/13 03:51:08;;;;;;;0.75;0.75;;;;;;;13.73;65.92;101311.59;5223947;28;20033;-88
2023/05/13 03:53:59;;;;;;;1.95;1.85;;;;;;;13.71;65.67;101308.13;5211435;28;20572;-86
2023/05/13 03:56:50;;;;;;;0.70;0.70;;;;;;;13.72;65.88;101309.84;5211244;28;20149;-88
2023/05/13 03:59:41;;;;;;;0.90;0.90;;;;;;;13.72;65.99;101311.66;5207778;28;20485;-87
2023/05/13 04:02:32;;;;;;;1.33;1.23;;;;;;;13.72;65.67;101312.50;5208235;28;20029;-88
2023/05/13 04:05:22;;;;;;;1.17;1.02;;;;;;;13.72;66.07;101315.13;5239694;28;20041;-87
2023/05/13 04:08:13;;;;;;;1.00;1.00;;;;;;;13.71;66.09;101313.41;5221871;28;20033;-88
2023/05/13 04:11:04;;;;;;;0.93;0.90;;;;;;;13.73;65.84;101314.22;5223206;28;20161;-87
2023/05/13 04:13:56;;;;;;;2.15;1.45;;;;;;;13.69;66.21;101317.84;5220253;28;20044;-88
2023/05/13 04:16:47;;;;;;;1.17;1.17;;;;;;;13.68;65.89;101318.75;5243622;28;20027;-88
2023/05/13 04:19:37;;;;;;;0.90;0.90;;;;;;;13.67;67.13;101324.97;5230261;28;20477;-87
2023/05/13 04:22:28;;;;;;;0.93;0.93;;;;;;;13.52;67.94;101315.75;5219856;28;20073;-87
2023/05/13 04:25:19;;;;;;;0.40;0.40;;;;;;;13.53;67.50;101328.03;5209658;28;20120;-88
2023/05/13 04:28:10;;;;;;;1.73;1.63;;;;;;;13.61;66.86;101327.78;5227188;28;20064;-87
2023/05/13 04:31:01;;;;;;;2.10;1.92;;;;;;;13.60;66.74;101326.03;5219924;28;20047;-88
2023/05/13 04:33:52;;;;;;;2.05;1.50;;;;;;;13.65;66.39;101325.00;5210556;28;20120;-87
2023/05/13 04:36:45;;;;;;;0.77;0.77;;;;;;;13.61;66.91;101325.13;5226321;28;20029;-88
2023/05/13 04:39:36;;;;;;;0.95;0.80;;;;;;;13.68;67.12;101326.66;5237495;28;20041;-88
2023/05/13 04:42:26;;;;;;;4.03;2.00;;;;;;;13.67;66.79;101332.88;5244915;28;20124;-89
2023/05/13 04:45:17;;;;;;;1.60;1.55;;;;;;;13.75;66.45;101340.53;5219104;28;20036;-86
2023/05/13 04:48:08;;;;;;;0.98;0.98;;;;;;;13.66;66.65;101333.78;5224575;28;20037;-87
2023/05/13 04:50:58;;;;;;;0.90;0.90;;;;;;;13.72;66.07;101341.50;5207889;28;20029;-87
2023/05/13 04:53:49;;;;;;;0.98;0.95;;;;;;;13.63;66.98;101334.75;5203116;28;20037;-86
2023/05/13 04:56:40;;;;;;;1.60;1.50;;;;;;;13.58;68.03;101341.06;5207751;28;20087;-87
2023/05/13 04:59:31;;;;;;;9.60;1.73;;;;;;;13.61;66.65;101340.94;5183667;28;20072;-86
2023/05/13 05:02:22;;;;;;;0.68;0.68;;;;;;;13.67;66.57;101346.06;5204337;28;20034;-86
2023/05/13 05:05:12;;;;;;;1.45;1.35;;;;;;;13.72;66.74;101348.56;5203529;28;20497;-87
2023/05/13 05:08:03;;;;;;;1.60;1.35;;;;;;;13.71;67.12;101352.97;5196658;28;20080;-86
2023/05/13 05:10:54;;;;;;;2.20;1.80;;;;;;;13.75;66.31;101357.25;5222590;28;20084;-83
2023/05/13 05:13:45;;;;;;;0.82;0.82;;;;;;;13.74;66.73;101352.88;5227756;28;20261;-84
2023/05/13 05:16:36;;;;;;;1.85;1.75;;;;;;;13.78;66.49;101348.38;5218999;28;20029;-84
2023/05/13 05:19:27;;;;;;;0.90;0.90;;;;;;;13.79;66.74;101355.38;5226014;28;20033;-83
2023/05/13 05:22:17;;;;;;;1.40;1.25;;;;;;;13.78;66.57;101359.78;5208376;28;20033;-83
2023/05/13 05:25:09;;;;;;;1.08;1.05;;;;;;;13.88;67.72;101349.81;5229829;28;20047;-83
2023/05/13 05:28:00;;;;;;;1.65;1.55;;;;;;;13.84;66.42;101359.56;5198893;28;20037;-83
2023/05/13 05:30:51;;;;;;;1.05;1.00;;;;;;;13.89;66.64;101353.31;5200779;28;20082;-83
2023/05/13 05:33:42;;;;;;;0.70;0.70;;;;;;;13.88;66.66;101354.22;5210277;28;20111;-84
2023/05/13 05:36:32;;;;;;;1.05;0.95;;;;;;;13.89;66.94;101351.53;5210424;28;20116;-83
2023/05/13 05:39:23;;;;;;;1.00;1.00;;;;;;;13.83;67.12;101351.72;5216180;28;20036;-84
2023/05/13 05:42:15;;;;;;;0.90;0.90;;;;;;;13.77;67.48;101358.03;5208009;28;20033;-83
2023/05/13 05:45:06;;;;;;;0.95;0.95;;;;;;;13.79;67.17;101356.22;5201110;28;20467;-84
2023/05/13 05:47:57;;;;;;;1.67;1.58;;;;;;;13.77;67.75;101363.31;5218125;28;20029;-85
2023/05/13 05:50:48;;;;;;;1.73;1.63;;;;;;;13.77;66.88;101363.31;5225546;28;20025;-85
2023/05/13 05:53:39;;;;;;;1.45;1.40;;;;;;;13.80;67.31;101360.59;5212989;28;20049;-84
2023/05/13 05:56:30;;;;;;;1.70;1.60;;;;;;;13.57;68.95;101365.69;5212315;28;20093;-85
2023/05/13 05:59:21;;;;;;;1.05;1.05;;;;;;;13.76;68.08;101366.84;5216803;28;20097;-86
2023/05/13 06:02:12;;;;;;;1.65;1.40;;;;;;;13.74;67.57;101358.16;5199769;28;20709;-87
2023/05/13 06:05:03;;;;;;;0.70;0.70;;;;;;;13.74;68.34;101363.44;5216931;28;20064;-86
2023/05/13 06:07:53;;;;;;;0.95;0.95;;;;;;;13.81;67.89;101364.97;5212806;28;20475;-85
2023/05/13 06:10:44;;;;;;;2.47;1.25;;;;;;;13.75;68.35;101365.16;5213113;28;20029;-85
2023/05/13 06:13:35;;;;;;;0.82;0.82;;;;;;;13.73;68.76;101361.69;5208003;28;20128;-87
2023/05/13 06:16:26;;;;;;;0.98;0.90;;;;;;;13.80;67.63;101368.50;5215589;28;20025;-87
2023/05/13 06:19:16;;;;;;;2.13;1.75;;;;;;;13.77;68.59;101371.22;5217640;28;20679;-86
2023/05/13 06:22:08;;;;;;;1.30;1.20;;;;;;;13.82;68.56;101379.00;5213821;28;20045;-85
2023/05/13 06:24:59;;;;;;;2.30;1.48;;;;;;;13.85;68.73;101374.50;5211380;28;20509;-85
2023/05/13 06:27:50;;;;;;;0.73;0.73;;;;;;;13.83;68.54;101378.97;5215865;28;20069;-84
2023/05/13 06:30:40;;;;;;;2.92;1.65;;;;;;;13.82;69.03;101382.53;5211047;28;20045;-85
2023/05/13 06:33:32;;;;;;;3.03;1.90;;;;;;;13.79;69.28;101389.66;5215591;28;20079;-85
2023/05/13 06:36:23;;;;;;;0.50;0.50;;;;;;;13.68;71.74;101389.97;5213402;28;20087;-84
2023/05/13 06:39:13;;;;;;;1.05;0.98;;;;;;;13.78;70.65;101388.78;5214965;28;20102;-84
2023/05/13 06:42:04;;;;;;;1.55;1.45;;;;;;;13.85;69.84;101392.97;5213105;28;20037;-85
2023/05/13 06:44:55;;;;;;;0.80;0.80;;;;;;;13.99;68.47;101396.97;5213954;28;20648;-86
2023/05/13 06:47:46;;;;;;;1.25;1.25;;;;;;;14.05;68.50;101401.22;5225515;28;20032;-85
2023/05/13 06:50:37;;;;;;;1.63;1.52;;;;;;;13.89;71.38;101408.72;5213981;28;20624;-86
2023/05/13 06:53:28;;;;;;;2.83;2.20;;;;;;;13.85;72.44;101397.38;5214735;28;20244;-85
2023/05/13 06:56:21;;;;;;;1.00;1.00;;;;;;;13.80;72.21;101394.88;5214744;28;20072;-86
2023/05/13 06:59:12;;;;;;;0.63;0.63;;;;;;;14.11;69.48;101403.66;5203470;28;20021;-86
2023/05/13 07:02:03;;;;;;;1.20;1.10;;;;;;;14.16;68.71;101401.72;5205208;28;20044;-86
2023/05/13 07:04:54;;;;;;;1.63;1.08;;;;;;;14.19;68.91;101399.00;5218035;28;20020;-87
2023/05/13 07:07:45;;;;;;;1.65;1.55;;;;;;;14.20;69.44;101391.94;5222226;28;20025;-85
2023/05/13 07:10:36;;;;;;;0.82;0.82;;;;;;;14.14;70.66;101393.84;5219013;28;20569;-86
2023/05/13 07:13:28;;;;;;;1.13;1.02;;;;;;;14.25;69.74;101401.44;5206446;28;20041;-85
2023/05/13 07:16:18;;;;;;;1.50;1.40;;;;;;;14.33;69.27;101394.13;5210596;28;20473;-85
2023/05/13 07:19:09;;;;;;;1.75;1.65;;;;;;;14.37;69.89;101408.09;5214549;28;20005;-86
2023/05/13 07:22:00;;;;;;;1.58;1.40;;;;;;;14.37;69.78;101407.25;5244441;28;20044;-85
2023/05/13 07:24:51;;;;;;;2.63;1.55;;;;;;;14.40;69.63;101408.00;5226514;28;20038;-85
2023/05/13 07:27:42;;;;;;;0.70;0.70;;;;;;;14.41;70.40;101407.09;5229976;28;20079;-83
2023/05/13 07:30:33;;;;;;;1.58;1.48;;;;;;;14.50;69.22;101411.19;5204987;28;20064;-83
2023/05/13 07:33:23;;;;;;;1.42;1.33;;;;;;;14.56;69.61;101404.88;5231620;28;20543;-86
2023/05/13 07:36:14;;;;;;;1.65;1.15;;;;;;;14.59;68.97;101405.63;5203115;28;20039;-85
2023/05/13 07:39:07;;;;;;;1.80;1.70;;;;;;;14.62;68.92;101410.81;5205730;28;20032;-86
2023/05/13 07:41:58;;;;;;;0.93;0.93;;;;;;;14.60;69.33;101422.31;5201197;28;20112;-85
2023/05/13 07:44:48;;;;;;;0.75;0.75;;;;;;;14.56;70.21;101410.16;5210497;28;20084;-84
2023/05/13 07:47:39;;;;;;;2.22;1.48;;;;;;;14.49;70.08;101401.56;5185137;28;20044;-84
2023/05/13 07:50:31;;;;;;;0.40;0.40;;;;;;;14.54;70.58;101409.31;5211674;28;20032;-85
2023/05/13 07:53:22;;;;;;;0.80;0.80;;;;;;;14.62;69.51;101404.66;5218183;28;20113;-84
2023/05/13 07:56:12;;;;;;;0.90;0.77;;;;;;;14.70;69.57;101407.94;5222160;28;20105;-84
2023/05/13 07:59:04;;;;;;;0.85;0.85;;;;;;;14.67;69.45;101405.38;5224976;28;20064;-85
2023/05/13 08:01:54;;;;;;;0.75;0.75;;;;;;;14.61;70.83;101403.81;5206691;28;20075;-85
2023/05/13 08:04:45;;;;;;;0.90;0.90;;;;;;;14.73;69.82;101402.56;5221451;28;20028;-86
2023/05/13 08:07:36;;;;;;;1.25;1.15;;;;;;;14.67;69.83;101407.19;5215101;28;20036;-85
2023/05/13 08:10:27;;;;;;;1.00;0.65;;;;;;;14.74;69.40;101408.69;5218825;28;20052;-85
2023/05/13 08:13:18;;;;;;;0.85;0.85;;;;;;;14.74;69.77;101396.38;5201809;28;20037;-85
2023/05/13 08:16:09;;;;;;;0.95;0.95;;;;;;;14.79;69.05;101397.06;5202716;28;20470;-85
2023/05/13 08:18:59;;;;;;;2.17;1.98;;;;;;;14.88;69.33;101402.94;5198775;28;20081;-85
2023/05/13 08:21:50;;;;;;;3.85;1.48;;;;;;;14.86;69.47;101400.38;5218683;28;20030;-85
2023/05/13 08:24:41;;;;;;;2.33;1.27;;;;;;;14.87;69.51;101399.47;5215712;28;20411;-84
2023/05/13 08:27:33;;;;;;;2.25;2.08;;;;;;;15.01;69.67;101403.38;5209077;28;20033;-83
2023/05/13 08:30:24;;;;;;;0.73;0.73;;;;;;;15.08;69.00;101400.47;5217572;28;20102;-82
2023/05/13 08:33:15;;;;;;;1.33;1.15;;;;;;;15.08;69.68;101412.81;5219632;28;20106;-83
2023/05/13 08:36:06;;;;;;;1.17;1.08;;;;;;;15.06;69.71;101414.66;5216095;28;20483;-84
2023/05/13 08:38:57;;;;;;;0.68;0.68;;;;;;;15.09;69.26;101411.91;5204335;28;20025;-82
2023/05/13 08:41:51;;;;;;;1.33;1.08;;;;;;;15.15;69.33;101403.75;5198421;28;20037;-84
2023/05/13 08:44:43;;;;;;;10.95;2.40;;;;;;;15.19;68.69;101409.81;5228332;28;20094;-84
2023/05/13 08:47:55;;;;;;;1.27;1.27;;;;;;;15.30;68.00;101407.66;5201082;28;20116;-83
2023/05/13 08:50:47;;;;;;;1.85;1.75;;;;;;;15.31;67.68;101409.38;5202960;28;20029;-83
2023/05/13 08:53:39;;;;;;;2.60;1.83;;;;;;;15.29;68.17;101410.34;5212214;28;20067;-85
2023/05/13 08:56:30;;;;;;;1.38;1.15;;;;;;;15.31;68.67;101409.38;5233725;28;20021;-84
2023/05/13 08:59:20;;;;;;;2.22;1.90;;;;;;;15.35;68.25;101404.84;5253982;28;20039;-83
2023/05/13 09:02:11;;;;;;;1.08;1.00;;;;;;;15.39;68.36;101407.31;5220750;28;20037;-86
2023/05/13 09:05:07;;;;;;;0.70;0.70;;;;;;;15.47;68.62;101417.59;5199496;28;20037;-84
2023/05/13 09:08:05;;;;;;;1.45;1.35;;;;;;;15.62;67.79;101412.69;5217447;28;20054;-85
2023/05/13 09:10:56;;;;;;;4.68;1.35;;;;;;;15.65;68.62;101417.84;5218171;28;20063;-84
2023/05/13 09:14:01;;;;;;;2.28;1.40;;;;;;;15.68;68.86;101420.38;5215829;28;20041;-87
2023/05/13 09:16:56;;;;;;;1.52;1.42;;;;;;;15.68;69.04;101415.94;5209269;28;20041;-86
2023/05/13 09:19:46;;;;;;;0.75;0.75;;;;;;;15.73;69.17;101399.91;5225520;28;20029;-85
2023/05/13 09:22:45;;;;;;;1.40;1.25;;;;;;;15.79;69.04;101404.94;5196097;28;20112;-84
2023/05/13 09:25:37;;;;;;;1.02;1.02;;;;;;;15.82;68.72;101404.00;5229475;28;20044;-85
2023/05/13 09:28:27;;;;;;;1.13;1.02;;;;;;;15.93;68.44;101396.53;5203494;28;20032;-86
2023/05/13 09:31:31;;;;;;;0.73;0.68;;;;;;;16.02;67.75;101395.31;5201506;28;20038;-86
2023/05/13 09:34:30;;;;;;;1.20;1.10;;;;;;;15.99;68.25;101388.34;5217516;28;20116;-86
2023/05/13 09:37:23;;;;;;;0.85;0.85;;;;;;;16.04;68.77;101383.75;5214751;28;20037;-86
2023/05/13 09:40:16;;;;;;;15.30;1.90;;;;;;;16.08;69.03;101384.47;5199856;28;20126;-86
2023/05/13 09:43:07;;;;;;;0.98;0.98;;;;;;;16.19;67.72;101384.94;5211355;28;20039;-85
2023/05/13 09:46:03;;;;;;;0.35;0.35;;;;;;;16.38;67.54;101376.22;5215477;28;20481;-85
2023/05/13 09:48:57;;;;;;;0.70;0.65;;;;;;;16.47;68.68;101375.00;5199073;28;20112;-85
2023/05/13 09:51:48;;;;;;;0.50;0.50;;;;;;;16.53;65.44;101370.28;5214170;28;20044;-85
2023/05/13 09:54:39;;;;;;;0.70;0.70;;;;;;;16.60;65.28;101368.25;5215623;28;20036;-86
2023/05/13 09:57:30;;;;;;;2.72;1.40;;;;;;;16.68;63.55;101365.28;5203980;28;20025;-86
2023/05/13 10:00:21;;;;;;;1.38;1.23;;;;;;;16.71;64.66;101367.78;5215003;28;20037;-86
2023/05/13 10:03:13;;;;;;;1.85;1.40;;;;;;;16.83;64.08;101361.97;5214953;28;20118;-86
2023/05/13 10:06:04;;;;;;;0.85;0.82;;;;;;;16.88;63.87;101367.06;5217290;28;20041;-85
2023/05/13 10:09:00;;;;;;;1.45;0.80;;;;;;;16.99;63.07;101367.47;5209088;28;20108;-85
2023/05/13 10:11:52;;;;;;;0.57;0.57;;;;;;;17.09;64.02;101361.78;5199642;28;20033;-86
2023/05/13 10:14:43;;;;;;;0.50;0.50;;;;;;;17.19;62.97;101355.13;5201474;28;20032;-86
2023/05/13 10:17:34;;;;;;;2.08;1.20;;;;;;;17.26;62.74;101353.09;5213214;28;20029;-85
2023/05/13 10:20:26;;;;;;;1.27;0.95;;;;;;;17.39;62.12;101342.78;5228701;28;20056;-85
2023/05/13 10:23:18;;;;;;;1.10;1.00;;;;;;;17.64;62.98;101347.78;5194072;28;20564;-85
2023/05/13 10:26:10;;;;;;;1.00;0.82;;;;;;;17.60;61.11;101341.78;5213920;28;20110;-86
2023/05/13 10:29:02;;;;;;;0.60;0.60;;;;;;;17.76;58.91;101346.34;5228774;28;20045;-85
2023/05/13 10:31:54;;;;;;;0.43;0.43;;;;;;;17.79;59.40;101335.59;5228540;28;20021;-84
2023/05/13 10:34:45;;;;;;;0.55;0.55;;;;;;;17.95;58.49;101330.41;5233113;28;20572;-85
2023/05/13 10:37:45;;;;;;;1.77;1.65;;;;;;;18.07;55.94;101336.94;5210868;28;20033;-84
2023/05/13 10:41:14;;;;;;;1.38;1.27;;;;;;;18.14;56.76;101334.84;5218008;28;20443;-85
2023/05/13 10:44:06;;;;;;;1.20;0.85;;;;;;;18.31;54.22;101321.59;5176942;28;20132;-85
2023/05/13 10:46:57;;;;;;;0.63;0.63;;;;;;;18.25;55.51;101322.75;5199626;28;20099;-85
2023/05/13 10:49:51;;;;;;;0.47;0.47;;;;;;;18.28;54.44;101316.44;5222460;28;20057;-86
2023/05/13 10:52:46;;;;;;;0.70;0.70;;;;;;;18.34;55.02;101310.84;5221731;28;20075;-86
2023/05/13 10:55:46;;;;;;;0.40;0.40;;;;;;;18.49;56.21;101317.13;5201620;28;20032;-86
2023/05/13 10:58:37;;;;;;;0.60;0.60;;;;;;;18.72;54.69;101310.66;5203282;28;20025;-86
2023/05/13 11:01:37;;;;;;;0.90;0.90;;;;;;;18.68;53.37;101298.44;5219979;28;20033;-86
2023/05/13 11:04:28;;;;;;;0.47;0.47;;;;;;;18.88;51.90;101296.53;5205856;28;20032;-86
2023/05/13 11:07:19;;;;;;;1.05;0.80;;;;;;;18.88;52.58;101293.88;5217100;28;20041;-86
2023/05/13 11:10:24;;;;;;;0.60;0.60;;;;;;;19.12;49.75;101281.13;5209413;28;20032;-87
2023/05/13 11:13:15;;;;;;;0.75;0.75;;;;;;;19.27;47.63;101283.88;5202491;28;20055;-86
2023/05/13 11:16:11;;;;;;;1.65;0.70;;;;;;;19.45;44.91;101282.00;5230908;28;20513;-87
2023/05/13 11:19:07;;;;;;;0.45;0.45;;;;;;;19.38;47.23;101281.47;5218274;28;20068;-86
2023/05/13 11:22:28;;;;;;;0.30;0.30;;;;;;;19.67;46.35;101293.16;5200241;28;20033;-86
2023/05/13 11:25:25;;;;;;;0.90;0.90;;;;;;;19.59;45.64;101284.72;5200378;28;20048;-87
2023/05/13 11:28:19;;;;;;;0.65;0.65;;;;;;;19.62;44.50;101275.75;5203563;28;20037;-88
2023/05/13 11:31:16;;;;;;;1.30;1.13;;;;;;;19.85;43.95;101278.94;5215715;28;20033;-87
2023/05/13 11:34:11;;;;;;;0.63;0.63;;;;;;;19.74;45.84;101267.03;5219394;28;20032;-87
2023/05/13 11:37:02;;;;;;;1.27;1.08;;;;;;;19.92;45.45;101275.81;5223769;28;20021;-87
2023/05/13 11:39:52;;;;;;;0.50;0.50;;;;;;;20.01;46.46;101271.75;5240383;28;20032;-87
2023/05/13 11:42:44;;;;;;;0.57;0.40;;;;;;;20.20;46.57;101274.19;5231445;28;20032;-87
2023/05/13 11:45:37;;;;;;;0.63;0.63;;;;;;;20.10;44.02;101273.03;5250142;28;20216;-86
2023/05/13 11:48:28;;;;;;;0.45;0.45;;;;;;;20.25;45.44;101272.13;5245724;28;20083;-87
2023/05/13 11:51:19;;;;;;;1.70;1.25;;;;;;;20.46;44.68;101269.13;5234113;28;20032;-86
2023/05/13 11:54:10;;;;;;;0.65;0.65;;;;;;;20.43;46.06;101277.28;5212953;28;20035;-86
2023/05/13 11:57:04;;;;;;;0.40;0.40;;;;;;;20.49;47.55;101268.09;5244249;28;20045;-87
2023/05/13 11:59:57;;;;;;;0.40;0.40;;;;;;;20.67;43.91;101264.31;5232030;28;20028;-87
2023/05/13 12:02:49;;;;;;;0.70;0.70;;;;;;;20.71;44.77;101271.16;5226560;28;20025;-85
2023/05/13 12:05:39;;;;;;;0.40;0.40;;;;;;;20.58;45.25;101264.84;5222171;28;20029;-87
2023/05/13 12:08:30;;;;;;;0.40;0.40;;;;;;;20.74;44.61;101268.34;5241165;28;20025;-87
2023/05/13 12:11:21;;;;;;;0.68;0.68;;;;;;;20.79;43.53;101268.06;5209670;28;20037;-88
2023/05/13 12:14:12;;;;;;;0.40;0.40;;;;;;;20.89;41.20;101260.34;5224522;28;20036;-87
2023/05/13 12:17:03;;;;;;;1.27;1.20;;;;;;;21.01;41.35;101270.25;5216653;28;20044;-88
2023/05/13 12:20:05;;;;;;;0.32;0.32;;;;;;;20.99;42.60;101265.97;5221726;28;20250;-91
2023/05/13 12:22:56;;;;;;;0.70;0.68;;;;;;;21.15;42.92;101264.06;5214846;28;20045;-88
2023/05/13 12:25:49;;;;;;;0.65;0.65;;;;;;;21.26;43.42;101265.16;5228323;28;20044;-87
2023/05/13 12:28:40;;;;;;;1.15;1.05;;;;;;;21.31;41.24;101271.94;5224354;28;20026;-88
2023/05/13 12:31:31;;;;;;;0.40;0.40;;;;;;;21.20;42.99;101258.41;5224881;28;20049;-88
2023/05/13 12:34:32;;;;;;;1.50;0.90;;;;;;;21.05;41.36;101266.44;5203297;28;20060;-88
2023/05/13 12:37:24;;;;;;;0.80;0.80;;;;;;;21.08;41.99;101276.03;5229780;28;20033;-88
2023/05/13 12:40:15;;;;;;;0.75;0.65;;;;;;;21.04;44.85;101309.22;5217109;28;20112;-88
2023/05/13 12:43:07;;;;;;;0.38;0.38;;;;;;;20.84;44.75;101303.28;5212324;28;20049;-89
2023/05/13 12:45:58;;;;;;;0.57;0.57;;;;;;;20.85;44.42;101315.69;5222939;28;20057;-89
2023/05/13 12:48:53;;;;;;;0.30;0.30;;;;;;;20.83;45.72;101308.72;5237756;28;20033;-90
2023/05/13 12:51:44;;;;;;;0.32;0.32;;;;;;;21.00;45.10;101315.69;5207998;28;20041;-91
2023/05/13 12:54:35;;;;;;;0.57;0.57;;;;;;;20.94;44.96;101319.59;5209761;28;20065;-90
2023/05/13 12:57:26;;;;;;;0.55;0.43;;;;;;;20.98;44.68;101307.78;5225128;28;20400;-89
2023/05/13 13:00:17;;;;;;;0.30;0.30;;;;;;;20.98;42.62;101313.13;5203170;28;20124;-89
2023/05/13 13:03:07;;;;;;;0.38;0.38;;;;;;;21.32;44.44;101315.50;5210941;28;20060;-90
2023/05/13 13:05:58;;;;;;;0.30;0.30;;;;;;;21.34;44.07;101317.13;5206439;28;20457;-92
2023/05/13 13:08:49;;;;;;;0.30;0.30;;;;;;;21.64;43.68;101318.78;5202860;28;20037;-89
2023/05/13 13:11:40;;;;;;;0.32;0.32;;;;;;;21.74;42.64;101316.38;5191747;28;20121;-89
2023/05/13 13:14:32;;;;;;;0.77;0.75;;;;;;;21.86;43.21;101312.06;5199689;28;20033;-92
2023/05/13 13:17:22;;;;;;;10.43;0.60;;;;;;;21.89;42.99;101303.84;5194787;28;20057;-90
2023/05/13 13:20:13;;;;;;;0.22;0.22;;;;;;;22.19;41.41;101315.28;5235654;28;20029;-89